Terminal Aerodrome Forecast
Issued by NWS

Home | Current Version | Previous Version | Graphics & Text | Print | Product List | Glossary On
Versions: 1 2 3 4 5 6 7 8 9 10 11 12 13 14 15 16 17
861
FTUS43 KIWX 071120
TAFSBN
TAF
KSBN 071120Z 0712/0812 25008G18KT P6SM SCT025 BKN100
     FM072200 26010KT P6SM BKN025
     FM080600 27010KT 6SM -SHSN BKN020=

USA.gov is the U.S. government's official web portal to all federal, state and local government web resources and services.